createdAt,value
2023-02-01T00:00:59.893Z,99260.63
2023-02-01T00:03:27.599Z,99263.19
2023-02-01T00:05:58.916Z,99257.22
2023-02-01T00:08:26.310Z,99256.34
2023-02-01T00:11:05.143Z,99260.59
2023-02-01T00:13:33.694Z,99258.91
2023-02-01T00:16:13.562Z,99265.72
2023-02-01T00:18:40.625Z,99258.06
2023-02-01T00:21:07.793Z,99272.56
2023-02-01T00:23:36.664Z,99266.59
2023-02-01T00:26:05.875Z,99270.00
2023-02-01T00:28:33.519Z,99258.13
2023-02-01T00:31:02.506Z,99247.88
2023-02-01T00:33:30.896Z,99252.13
2023-02-01T00:36:03.329Z,99250.41
2023-02-01T00:38:34.936Z,99243.59
2023-02-01T00:41:14.494Z,99252.16
2023-02-01T00:43:42.124Z,99250.44
2023-02-01T00:46:09.748Z,99244.47
2023-02-01T00:48:37.100Z,99243.59
2023-02-01T00:51:16.382Z,99243.59
2023-02-01T00:53:43.784Z,99241.91
2023-02-01T00:56:11.619Z,99252.97
2023-02-01T00:58:39.233Z,99264.03
2023-02-01T01:01:12.357Z,99257.28
2023-02-01T01:03:42.893Z,99266.69
2023-02-01T01:06:13.200Z,99253.88
2023-02-01T01:08:40.976Z,99255.59
2023-02-01T01:11:11.066Z,99253.88
2023-02-01T01:13:38.771Z,99250.47
2023-02-01T01:16:08.410Z,99258.13
2023-02-01T01:18:36.034Z,99259.00
2023-02-01T01:21:05.880Z,99255.59
2023-02-01T01:23:33.030Z,99250.47
2023-02-01T01:26:00.215Z,99247.91
2023-02-01T01:28:27.330Z,99252.16
2023-02-01T01:30:54.453Z,99248.75
2023-02-01T01:33:21.548Z,99246.19
2023-02-01T01:35:48.677Z,99251.28
2023-02-01T01:38:15.736Z,99259.81
2023-02-01T01:40:47.087Z,99249.63
2023-02-01T01:43:16.872Z,99241.94
2023-02-01T01:45:44.505Z,99243.66
2023-02-01T01:48:21.566Z,99241.97
2023-02-01T01:51:02.460Z,99233.41
2023-02-01T01:53:34.751Z,99259.84
2023-02-01T01:56:02.521Z,99245.38
2023-02-01T01:58:33.267Z,99253.91
2023-02-01T02:01:00.981Z,99252.19
2023-02-01T02:03:35.237Z,99243.72
2023-02-01T02:06:04.976Z,99253.94
2023-02-01T02:08:32.575Z,99230.09
2023-02-01T02:11:02.644Z,99237.78
2023-02-01T02:13:40.055Z,99243.75
2023-02-01T02:16:37.950Z,99250.59
2023-02-01T02:19:19.986Z,99254.84
2023-02-01T02:22:05.488Z,99248.88
2023-02-01T02:24:45.059Z,99257.38
2023-02-01T02:27:50.999Z,99257.38
2023-02-01T02:30:45.629Z,99261.59
2023-02-01T02:33:12.684Z,99264.16
2023-02-01T02:35:51.995Z,99264.97
2023-02-01T02:38:37.014Z,99266.63
2023-02-01T02:41:13.634Z,99270.03
2023-02-01T02:44:17.831Z,99270.00
2023-02-01T02:47:10.170Z,99264.94
2023-02-01T02:50:30.631Z,99260.72
2023-02-01T02:53:23.115Z,99272.63
2023-02-01T02:55:52.434Z,99273.50
2023-02-01T02:58:40.592Z,99279.50
2023-02-01T03:01:26.935Z,99288.91
2023-02-01T03:04:10.019Z,99294.84
2023-02-01T03:06:40.148Z,99284.63
2023-02-01T03:09:15.106Z,99291.47
2023-02-01T03:12:05.466Z,99296.56
2023-02-01T03:14:35.930Z,99301.66
2023-02-01T03:17:23.686Z,99298.25
2023-02-01T03:19:53.323Z,99300.78
2023-02-01T03:22:28.245Z,99282.91
2023-02-01T03:24:58.997Z,99290.59
2023-02-01T03:28:10.013Z,99284.63
2023-02-01T03:30:43.228Z,99281.25
2023-02-01T03:33:22.722Z,99275.25
2023-02-01T03:35:55.642Z,99293.16
2023-02-01T03:38:24.860Z,99286.34
2023-02-01T03:40:58.921Z,99289.72
2023-02-01T03:43:31.057Z,99282.09
2023-02-01T03:46:05.730Z,99282.97
2023-02-01T03:48:34.324Z,99280.44
2023-02-01T03:51:06.092Z,99281.28
2023-02-01T03:53:37.497Z,99281.28
2023-02-01T03:56:07.784Z,99279.59
2023-02-01T03:58:35.027Z,99272.75
2023-02-01T04:01:02.407Z,99269.38
2023-02-01T04:03:33.408Z,99274.47
2023-02-01T04:06:00.482Z,99262.53
2023-02-01T04:08:29.510Z,99277.88
2023-02-01T04:10:56.572Z,99271.91
2023-02-01T04:13:23.614Z,99277.84
2023-02-01T04:15:53.468Z,99265.94
2023-02-01T04:18:20.541Z,99274.41
2023-02-01T04:20:47.614Z,99270.16
2023-02-01T04:23:16.873Z,99257.38
2023-02-01T04:25:44.065Z,99268.47
2023-02-01T04:28:11.172Z,99272.69
2023-02-01T04:30:38.399Z,99255.66
2023-02-01T04:33:08.834Z,99273.53
2023-02-01T04:35:35.959Z,99267.59
2023-02-01T04:38:03.064Z,99270.13
2023-02-01T04:40:30.031Z,99272.69
2023-02-01T04:42:57.071Z,99269.28
2023-02-01T04:45:24.096Z,99267.59
2023-02-01T04:47:51.154Z,99259.94
2023-02-01T04:50:18.285Z,99269.31
2023-02-01T04:52:46.629Z,99260.81
2023-02-01T04:55:17.033Z,99250.63
2023-02-01T04:57:44.199Z,99263.38
2023-02-01T05:00:12.313Z,99254.88
2023-02-01T05:02:39.388Z,99250.59
2023-02-01T05:05:06.923Z,99252.31
2023-02-01T05:07:33.922Z,99248.94
2023-02-01T05:10:00.974Z,99245.50
2023-02-01T05:12:46.696Z,99253.19
2023-02-01T05:15:13.763Z,99257.47
2023-02-01T05:17:41.531Z,99250.66
2023-02-01T05:20:09.851Z,99236.16
2023-02-01T05:22:36.982Z,99237.03
2023-02-01T05:25:04.283Z,99242.16
2023-02-01T05:27:32.078Z,99244.69
2023-02-01T05:29:59.117Z,99233.59
2023-02-01T05:32:26.297Z,99248.97
2023-02-01T05:34:53.381Z,99249.81
2023-02-01T05:37:20.454Z,99252.38
2023-02-01T05:39:47.522Z,99245.59
2023-02-01T05:42:14.633Z,99248.97
2023-02-01T05:44:41.864Z,99237.06
2023-02-01T05:47:09.133Z,99240.50
2023-02-01T05:49:36.185Z,99242.19
2023-02-01T05:52:03.438Z,99237.91
2023-02-01T05:54:30.507Z,99232.81
2023-02-01T05:56:57.556Z,99239.63
2023-02-01T05:59:24.791Z,99243.03
2023-02-01T06:01:51.946Z,99249.03
2023-02-01T06:04:19.085Z,99243.06
2023-02-01T06:06:46.125Z,99243.06
2023-02-01T06:09:13.178Z,99231.97
2023-02-01T06:11:41.553Z,99243.06
2023-02-01T06:14:09.143Z,99249.03
2023-02-01T06:16:36.227Z,99250.72
2023-02-01T06:19:03.364Z,99257.56
2023-02-01T06:21:30.485Z,99252.47
2023-02-01T06:23:58.905Z,99261.81
2023-02-01T06:26:26.026Z,99257.53
2023-02-01T06:28:53.764Z,99244.72
2023-02-01T06:31:20.940Z,99266.06
2023-02-01T06:33:48.443Z,99276.28
2023-02-01T06:36:17.190Z,99283.06
2023-02-01T06:38:44.200Z,99281.38
2023-02-01T06:41:12.263Z,99283.06
2023-02-01T06:43:39.517Z,99283.06
2023-02-01T06:46:09.677Z,99269.38
2023-02-01T06:48:36.781Z,99274.50
2023-02-01T06:51:04.046Z,99283.03
2023-02-01T06:53:31.474Z,99279.56
2023-02-01T06:56:03.903Z,99283.03
2023-02-01T06:58:33.180Z,99281.28
2023-02-01T07:01:09.694Z,99291.50
2023-02-01T07:03:37.151Z,99275.28
2023-02-01T07:06:05.604Z,99283.03
2023-02-01T07:08:35.458Z,99286.38
2023-02-01T07:11:07.691Z,99289.75
2023-02-01T07:13:35.175Z,99288.06
2023-02-01T07:16:04.121Z,99294.91
2023-02-01T07:18:32.387Z,99286.41
2023-02-01T07:21:00.518Z,99282.16
2023-02-01T07:23:28.476Z,99288.13
2023-02-01T07:26:07.155Z,99273.63
2023-02-01T07:28:37.206Z,99291.50
2023-02-01T07:31:16.429Z,99290.66
2023-02-01T07:33:43.694Z,99285.53
2023-02-01T07:36:17.825Z,99281.25
2023-02-01T07:38:45.621Z,99286.34
2023-02-01T07:41:12.720Z,99300.84
2023-02-01T07:43:39.917Z,99286.34
2023-02-01T07:46:08.350Z,99280.34
2023-02-01T07:48:35.419Z,99294.84
2023-02-01T07:51:05.360Z,99294.88
2023-02-01T07:53:34.133Z,99294.88
2023-02-01T07:56:01.686Z,99308.50
2023-02-01T07:58:29.589Z,99295.75
2023-02-01T08:01:29.412Z,99299.19
2023-02-01T08:04:02.665Z,99306.91
2023-02-01T08:06:32.957Z,99301.81
2023-02-01T08:08:59.889Z,99300.97
2023-02-01T08:11:27.827Z,99303.53
2023-02-01T08:13:55.291Z,99306.97
2023-02-01T08:16:23.337Z,99302.69
2023-02-01T08:18:51.137Z,99300.97
2023-02-01T08:21:23.184Z,99301.81
2023-02-01T08:23:50.845Z,99296.69
2023-02-01T08:26:24.514Z,99293.28
2023-02-01T08:28:55.167Z,99285.59
2023-02-01T08:31:24.267Z,99292.41
2023-02-01T08:33:54.771Z,99289.88
2023-02-01T08:36:23.283Z,99279.63
2023-02-01T08:38:51.091Z,99293.28
2023-02-01T08:41:20.658Z,99288.16
2023-02-01T08:43:49.195Z,99289.00
2023-02-01T08:46:17.380Z,99283.06
2023-02-01T08:48:44.783Z,99277.94
2023-02-01T08:51:14.068Z,99286.50
2023-02-01T08:53:42.546Z,99284.81
2023-02-01T08:56:11.511Z,99277.97
2023-02-01T08:58:38.983Z,99277.13
2023-02-01T09:01:11.209Z,99276.25
2023-02-01T09:03:38.371Z,99281.38
2023-02-01T09:06:10.161Z,99277.09
2023-02-01T09:08:38.963Z,99276.19
2023-02-01T09:11:09.097Z,99281.38
2023-02-01T09:13:36.811Z,99271.16
2023-02-01T09:16:05.366Z,99260.91
2023-02-01T09:18:32.752Z,99270.31
2023-02-01T09:20:59.952Z,99278.00
2023-02-01T09:23:27.148Z,99272.91
2023-02-01T09:25:54.299Z,99294.19
2023-02-01T09:28:21.437Z,99289.06
2023-02-01T09:30:48.637Z,99303.56
2023-02-01T09:33:15.944Z,99295.88
2023-02-01T09:35:43.012Z,99286.50
2023-02-01T09:38:10.142Z,99288.19
2023-02-01T09:40:37.507Z,99290.75
2023-02-01T09:43:29.987Z,99298.38
2023-02-01T09:46:22.520Z,99283.91
2023-02-01T09:48:54.726Z,99283.06
2023-02-01T09:51:26.931Z,99266.03
2023-02-01T09:54:04.567Z,99272.00
2023-02-01T09:56:51.277Z,99271.13
2023-02-01T09:59:42.041Z,99274.50
2023-02-01T10:02:23.135Z,99269.38
2023-02-01T10:04:51.134Z,99271.06
2023-02-01T10:07:33.191Z,99262.59
2023-02-01T10:10:06.755Z,99257.50
2023-02-01T10:12:55.777Z,99251.59
2023-02-01T10:15:28.620Z,99250.78
2023-02-01T10:18:07.844Z,99244.00
2023-02-01T10:20:59.860Z,99245.75
2023-02-01T10:23:34.690Z,99237.25
2023-02-01T10:26:21.806Z,99229.56
2023-02-01T10:28:54.997Z,99230.41
2023-02-01T10:31:26.102Z,99232.97
2023-02-01T10:34:14.348Z,99225.31
2023-02-01T10:36:47.248Z,99227.00
2023-02-01T10:39:15.852Z,99213.38
2023-02-01T10:41:44.137Z,99220.19
2023-02-01T10:44:21.110Z,99209.94
2023-02-01T10:46:48.382Z,99210.81
2023-02-01T10:49:22.097Z,99199.72
2023-02-01T10:51:55.840Z,99204.84
2023-02-01T10:54:33.388Z,99201.41
2023-02-01T10:57:01.586Z,99194.56
2023-02-01T10:59:30.906Z,99194.53
2023-02-01T11:02:07.039Z,99213.31
2023-02-01T11:04:39.416Z,99204.78
2023-02-01T11:07:09.629Z,99203.91
2023-02-01T11:09:40.227Z,99203.06
2023-02-01T11:12:32.037Z,99208.22
2023-02-01T11:15:21.108Z,99201.41
2023-02-01T11:17:52.736Z,99197.97
2023-02-01T11:20:32.937Z,99203.09
2023-02-01T11:23:00.847Z,99197.13
2023-02-01T11:25:28.510Z,99195.41
2023-02-01T11:27:57.681Z,99203.06
2023-02-01T11:30:39.666Z,99194.56
2023-02-01T11:33:08.559Z,99192.84
2023-02-01T11:35:40.411Z,99193.72
2023-02-01T11:38:22.748Z,99204.81
2023-02-01T11:40:51.030Z,99189.47
2023-02-01T11:43:29.551Z,99189.47
2023-02-01T11:46:05.163Z,99194.59
2023-02-01T11:48:33.994Z,99192.88
2023-02-01T11:51:36.208Z,99209.94
2023-02-01T11:54:21.936Z,99205.69
2023-02-01T11:57:24.974Z,99201.41
2023-02-01T12:00:29.838Z,99199.72
2023-02-01T12:03:15.322Z,99196.31
2023-02-01T12:06:05.472Z,99199.75
2023-02-01T12:08:45.954Z,99192.06
2023-02-01T12:11:54.917Z,99201.44
2023-02-01T12:14:30.750Z,99192.91
2023-02-01T12:17:16.184Z,99187.78
2023-02-01T12:19:49.322Z,99180.94
2023-02-01T12:22:32.032Z,99180.97
2023-02-01T12:25:22.161Z,99170.75
2023-02-01T12:28:07.909Z,99169.00
2023-02-01T12:30:46.359Z,99162.19
2023-02-01T12:33:40.826Z,99176.69
2023-02-01T12:36:33.272Z,99173.28
2023-02-01T12:39:22.039Z,99169.00
2023-02-01T12:41:51.653Z,99172.44
2023-02-01T12:44:30.207Z,99179.25
2023-02-01T12:47:27.642Z,99162.19
2023-02-01T12:49:57.283Z,99173.31
2023-02-01T12:52:35.892Z,99178.41
2023-02-01T12:55:33.885Z,99175.00
2023-02-01T12:58:13.043Z,99165.63
2023-02-01T13:00:44.826Z,99179.25
2023-02-01T13:03:43.159Z,99175.84
2023-02-01T13:06:34.390Z,99185.22
2023-02-01T13:09:19.904Z,99191.19
2023-02-01T13:11:49.762Z,99177.53
2023-02-01T13:14:33.937Z,99192.06
2023-02-01T13:17:05.463Z,99196.31
2023-02-01T13:19:43.695Z,99187.75
2023-02-01T13:22:45.314Z,99185.22
2023-02-01T13:25:32.029Z,99187.78
2023-02-01T13:28:05.266Z,99184.38
2023-02-01T13:30:40.723Z,99187.78
2023-02-01T13:33:52.532Z,99192.91
2023-02-01T13:36:44.643Z,99194.59
2023-02-01T13:39:17.544Z,99192.03
2023-02-01T13:41:56.525Z,99192.88
2023-02-01T13:44:39.819Z,99191.19
2023-02-01T13:47:23.044Z,99192.03
2023-02-01T13:49:51.214Z,99187.78
2023-02-01T13:52:33.901Z,99191.16
2023-02-01T13:55:26.558Z,99199.72
2023-02-01T13:58:02.833Z,99189.47
2023-02-01T14:00:38.236Z,99197.16
2023-02-01T14:03:23.910Z,99198.84
2023-02-01T14:05:50.995Z,99200.56
2023-02-01T14:08:45.296Z,99206.53
2023-02-01T14:11:36.860Z,99201.41
2023-02-01T14:14:16.057Z,99203.97
2023-02-01T14:16:55.325Z,99201.41
2023-02-01T14:19:22.941Z,99190.31
2023-02-01T14:21:59.770Z,99194.59
2023-02-01T14:24:30.565Z,99195.44
2023-02-01T14:27:00.994Z,99203.13
2023-02-01T14:29:35.160Z,99191.19
2023-02-01T14:32:17.455Z,99205.69
2023-02-01T14:34:47.855Z,99205.69
2023-02-01T14:37:17.967Z,99203.97
2023-02-01T14:39:47.940Z,99204.81
2023-02-01T14:42:41.075Z,99202.28
2023-02-01T14:45:20.652Z,99206.56
2023-02-01T14:47:51.460Z,99201.44
2023-02-01T14:50:41.819Z,99205.72
2023-02-01T14:53:12.025Z,99209.94
2023-02-01T14:55:49.403Z,99205.69
2023-02-01T14:58:29.409Z,99209.09
2023-02-01T15:00:59.056Z,99209.97
2023-02-01T15:03:41.189Z,99213.38
2023-02-01T15:06:44.112Z,99219.34
2023-02-01T15:09:21.885Z,99202.28
2023-02-01T15:12:13.662Z,99212.50
2023-02-01T15:14:50.465Z,99216.78
2023-02-01T15:17:24.939Z,99222.75
2023-02-01T15:20:02.731Z,99217.63
2023-02-01T15:22:32.848Z,99216.78
2023-02-01T15:25:01.591Z,99215.09
2023-02-01T15:27:30.183Z,99213.34
2023-02-01T15:30:10.421Z,99221.88
2023-02-01T15:32:41.338Z,99225.31
2023-02-01T15:35:39.867Z,99228.69
2023-02-01T15:38:25.302Z,99235.53
2023-02-01T15:40:55.111Z,99236.41
2023-02-01T15:43:23.542Z,99244.91
2023-02-01T15:45:53.667Z,99237.25
2023-02-01T15:48:26.165Z,99233.81
2023-02-01T15:50:56.762Z,99236.38
2023-02-01T15:53:28.139Z,99241.50
2023-02-01T15:55:58.570Z,99237.25
2023-02-01T15:58:26.302Z,99239.78
2023-02-01T16:01:03.627Z,99233.81
2023-02-01T16:03:49.653Z,99223.59
2023-02-01T16:06:22.863Z,99230.41
2023-02-01T16:08:53.425Z,99227.84
2023-02-01T16:11:32.873Z,99235.50
2023-02-01T16:14:02.775Z,99240.63
2023-02-01T16:16:31.036Z,99227.81
2023-02-01T16:18:58.303Z,99232.09
2023-02-01T16:21:25.392Z,99232.09
2023-02-01T16:23:53.706Z,99239.75
2023-02-01T16:26:21.824Z,99228.66
2023-02-01T16:28:49.476Z,99224.41
2023-02-01T16:31:22.110Z,99218.44
2023-02-01T16:33:52.917Z,99227.78
2023-02-01T16:36:20.718Z,99226.06
2023-02-01T16:38:49.217Z,99218.38
2023-02-01T16:41:18.916Z,99220.13
2023-02-01T16:43:46.146Z,99215.84
2023-02-01T16:46:23.556Z,99223.50
2023-02-01T16:48:59.440Z,99217.50
2023-02-01T16:51:33.215Z,99223.47
2023-02-01T16:54:01.386Z,99226.88
2023-02-01T16:56:33.736Z,99221.75
2023-02-01T16:59:03.871Z,99226.84
2023-02-01T17:01:31.000Z,99227.72
2023-02-01T17:03:58.238Z,99223.44
2023-02-01T17:06:28.645Z,99228.53
2023-02-01T17:08:56.858Z,99226.84
2023-02-01T17:11:24.074Z,99225.16
2023-02-01T17:13:51.843Z,99221.72
2023-02-01T17:16:22.492Z,99216.63
2023-02-01T17:19:01.287Z,99225.09
2023-02-01T17:21:30.627Z,99213.19
2023-02-01T17:24:00.258Z,99221.72
2023-02-01T17:26:27.446Z,99220.81
2023-02-01T17:28:54.472Z,99203.78
2023-02-01T17:31:22.227Z,99206.31
2023-02-01T17:33:51.568Z,99209.72
2023-02-01T17:36:19.010Z,99205.44
2023-02-01T17:38:53.613Z,99211.41
2023-02-01T17:41:27.109Z,99206.28
2023-02-01T17:43:54.220Z,99221.63
2023-02-01T17:46:27.337Z,99201.19
2023-02-01T17:48:55.706Z,99206.28
2023-02-01T17:51:30.475Z,99204.56
2023-02-01T17:53:57.562Z,99186.69
2023-02-01T17:56:25.922Z,99185.81
2023-02-01T17:58:53.073Z,99173.88
2023-02-01T18:01:22.985Z,99177.31
2023-02-01T18:03:51.875Z,99176.44
2023-02-01T18:06:26.891Z,99168.78
2023-02-01T18:08:54.669Z,99176.44
2023-02-01T18:11:24.412Z,99180.69
2023-02-01T18:13:56.019Z,99167.91
2023-02-01T18:16:26.061Z,99167.03
2023-02-01T18:18:53.616Z,99167.03
2023-02-01T18:21:22.635Z,99167.06
2023-02-01T18:23:49.941Z,99167.06
2023-02-01T18:26:18.642Z,99149.16
2023-02-01T18:28:45.871Z,99161.97
2023-02-01T18:31:28.009Z,99155.16
2023-02-01T18:33:56.759Z,99149.19
2023-02-01T18:36:24.476Z,99152.59
2023-02-01T18:38:51.686Z,99141.50
2023-02-01T18:41:24.083Z,99144.94
2023-02-01T18:43:52.536Z,99144.94
2023-02-01T18:46:21.951Z,99136.44
2023-02-01T18:48:49.543Z,99138.16
2023-02-01T18:51:20.127Z,99134.72
2023-02-01T18:53:48.436Z,99127.94
2023-02-01T18:56:18.379Z,99133.91
2023-02-01T18:58:45.525Z,99135.59
2023-02-01T19:01:20.008Z,99122.84
2023-02-01T19:03:56.606Z,99130.53
2023-02-01T19:06:35.569Z,99122.84
2023-02-01T19:09:02.702Z,99127.94
2023-02-01T19:11:30.020Z,99136.50
2023-02-01T19:13:57.150Z,99129.69
2023-02-01T19:16:24.207Z,99141.63
2023-02-01T19:18:53.627Z,99124.59
2023-02-01T19:21:20.766Z,99131.41
2023-02-01T19:23:47.836Z,99131.44
2023-02-01T19:26:17.244Z,99128.88
2023-02-01T19:28:49.133Z,99119.53
2023-02-01T19:31:17.444Z,99124.63
2023-02-01T19:33:44.676Z,99114.38
2023-02-01T19:36:11.926Z,99121.22
2023-02-01T19:38:40.539Z,99124.59
2023-02-01T19:41:07.715Z,99108.41
2023-02-01T19:43:37.079Z,99116.91
2023-02-01T19:46:04.665Z,99115.19
2023-02-01T19:48:31.893Z,99124.56
2023-02-01T19:50:59.490Z,99118.56
2023-02-01T19:53:28.191Z,99114.31
2023-02-01T19:55:57.577Z,99129.63
2023-02-01T19:58:26.448Z,99122.81
2023-02-01T20:00:57.733Z,99129.63
2023-02-01T20:03:25.045Z,99131.34
2023-02-01T20:05:54.485Z,99138.16
2023-02-01T20:08:22.377Z,99141.56
2023-02-01T20:10:49.850Z,99141.56
2023-02-01T20:13:17.474Z,99139.84
2023-02-01T20:15:45.063Z,99136.47
2023-02-01T20:18:12.837Z,99130.50
2023-02-01T20:20:41.903Z,99117.72
2023-02-01T20:23:09.314Z,99119.41
2023-02-01T20:25:38.552Z,99129.63
2023-02-01T20:28:05.825Z,99117.72
2023-02-01T20:30:33.279Z,99126.25
2023-02-01T20:33:00.368Z,99135.59
2023-02-01T20:35:27.522Z,99134.75
2023-02-01T20:37:55.540Z,99132.19
2023-02-01T20:40:23.316Z,99119.38
2023-02-01T20:42:50.476Z,99129.63
2023-02-01T20:45:17.805Z,99121.09
2023-02-01T20:47:44.852Z,99132.19
2023-02-01T20:50:12.349Z,99153.47
2023-02-01T20:52:39.544Z,99141.56
2023-02-01T20:55:07.163Z,99145.81
2023-02-01T20:57:34.425Z,99141.53
2023-02-01T21:00:01.462Z,99152.63
2023-02-01T21:02:28.590Z,99150.06
2023-02-01T21:04:55.711Z,99150.06
2023-02-01T21:07:22.984Z,99153.47
2023-02-01T21:09:50.074Z,99148.38
2023-02-01T21:12:17.278Z,99144.94
2023-02-01T21:14:44.408Z,99158.59
2023-02-01T21:17:11.496Z,99155.22
2023-02-01T21:19:44.630Z,99151.81
2023-02-01T21:22:13.773Z,99154.38
2023-02-01T21:24:41.797Z,99157.75
2023-02-01T21:27:09.847Z,99153.50
2023-02-01T21:29:37.370Z,99160.34
2023-02-01T21:32:06.893Z,99167.13
2023-02-01T21:34:35.893Z,99168.84
2023-02-01T21:37:03.724Z,99156.94
2023-02-01T21:39:30.981Z,99168.88
2023-02-01T21:42:16.840Z,99173.97
2023-02-01T21:44:48.598Z,99167.16
2023-02-01T21:47:21.351Z,99171.41
2023-02-01T21:49:53.148Z,99176.50
2023-02-01T21:52:20.641Z,99173.97
2023-02-01T21:54:48.044Z,99178.25
2023-02-01T21:57:15.176Z,99165.44
2023-02-01T21:59:44.155Z,99173.94
2023-02-01T22:02:16.327Z,99172.22
2023-02-01T22:04:44.339Z,99164.56
2023-02-01T22:07:12.090Z,99179.06
2023-02-01T22:09:40.140Z,99175.66
2023-02-01T22:12:08.733Z,99175.66
2023-02-01T22:14:35.934Z,99164.56
2023-02-01T22:17:02.996Z,99180.78
2023-02-01T22:19:30.105Z,99173.94
2023-02-01T22:21:57.127Z,99172.25
2023-02-01T22:24:24.384Z,99173.97
2023-02-01T22:26:51.715Z,99182.47
2023-02-01T22:29:19.539Z,99185.03
2023-02-01T22:31:47.675Z,99185.91
2023-02-01T22:34:15.758Z,99165.44
2023-02-01T22:36:43.426Z,99170.56
2023-02-01T22:39:10.847Z,99178.25
2023-02-01T22:41:37.888Z,99187.63
2023-02-01T22:44:05.129Z,99180.78
2023-02-01T22:46:32.664Z,99177.41
2023-02-01T22:49:00.655Z,99177.41
2023-02-01T22:51:29.790Z,99153.53
2023-02-01T22:53:57.355Z,99189.31
2023-02-01T22:56:33.789Z,99186.78
2023-02-01T22:59:03.720Z,99183.38
2023-02-01T23:01:31.600Z,99174.00
2023-02-01T23:04:04.433Z,99185.94
2023-02-01T23:06:33.884Z,99184.22
2023-02-01T23:09:04.662Z,99187.66
2023-02-01T23:11:31.708Z,99182.53
2023-02-01T23:13:58.843Z,99179.13
2023-02-01T23:16:25.951Z,99180.84
2023-02-01T23:18:53.230Z,99187.66
2023-02-01T23:21:22.261Z,99180.00
2023-02-01T23:23:54.895Z,99190.19
2023-02-01T23:26:23.681Z,99194.50
2023-02-01T23:28:54.284Z,99187.66
2023-02-01T23:31:23.866Z,99194.50
2023-02-01T23:33:55.069Z,99198.75
2023-02-01T23:36:23.955Z,99191.06
2023-02-01T23:38:51.703Z,99193.63
2023-02-01T23:41:20.391Z,99184.28
2023-02-01T23:43:59.343Z,99188.53
2023-02-01T23:46:32.577Z,99175.75
2023-02-01T23:49:01.062Z,99180.88
2023-02-01T23:51:28.453Z,99177.47
2023-02-01T23:53:56.468Z,99176.63
2023-02-01T23:56:40.076Z,99174.06
2023-02-01T23:59:11.729Z,99185.13
